createdAt,value
2018-08-18T00:00:06.266Z,27.03
2018-08-18T00:00:47.132Z,27.07
2018-08-18T00:01:27.967Z,27.07
2018-08-18T00:02:08.763Z,27.04
2018-08-18T00:02:49.491Z,27.07
2018-08-18T00:03:30.337Z,27.06
2018-08-18T00:04:11.140Z,27.03
2018-08-18T00:04:51.900Z,27.09
2018-08-18T00:05:32.602Z,27
2018-08-18T00:06:13.397Z,27.06
2018-08-18T00:06:54.209Z,26.99
2018-08-18T00:07:34.978Z,26.95
2018-08-18T00:08:15.821Z,27
2018-08-18T00:08:56.584Z,27.03
2018-08-18T00:09:37.435Z,26.94
2018-08-18T00:10:18.279Z,27.04
2018-08-18T00:10:59.033Z,27.03
2018-08-18T00:11:39.786Z,26.97
2018-08-18T00:12:20.646Z,27
2018-08-18T00:13:01.461Z,27.02
2018-08-18T00:13:42.159Z,27.02
2018-08-18T00:14:22.892Z,27.04
2018-08-18T00:15:03.676Z,27.14
2018-08-18T00:15:44.539Z,27.07
2018-08-18T00:16:25.338Z,27.02
2018-08-18T00:17:06.202Z,27.04
2018-08-18T00:17:46.950Z,27.02
2018-08-18T00:18:27.651Z,27.12
2018-08-18T00:19:08.588Z,27.03
2018-08-18T00:19:49.403Z,27.04
2018-08-18T00:20:30.221Z,27.04
2018-08-18T00:21:10.963Z,27.03
2018-08-18T00:21:51.741Z,27.06
2018-08-18T00:22:32.563Z,27.09
2018-08-18T00:23:13.401Z,27
2018-08-18T00:23:54.177Z,27.02
2018-08-18T00:24:34.974Z,27.03
2018-08-18T00:25:15.717Z,27.06
2018-08-18T00:25:56.437Z,27.06
2018-08-18T00:26:37.248Z,27.09
2018-08-18T00:27:18.064Z,27.04
2018-08-18T00:27:58.876Z,27.1
2018-08-18T00:28:39.592Z,27.02
2018-08-18T00:29:20.386Z,26.97
2018-08-18T00:30:01.227Z,27.07
2018-08-18T00:30:41.995Z,27
2018-08-18T00:31:22.720Z,27.1
2018-08-18T00:32:03.492Z,26.95
2018-08-18T00:32:44.340Z,26.95
2018-08-18T00:33:25.141Z,26.97
2018-08-18T00:34:06.036Z,26.97
2018-08-18T00:34:46.812Z,26.92
2018-08-18T00:35:27.565Z,26.94
2018-08-18T00:36:08.320Z,27
2018-08-18T00:36:49.221Z,26.97
2018-08-18T00:37:29.910Z,26.89
2018-08-18T00:38:10.684Z,26.94
2018-08-18T00:38:51.462Z,26.91
2018-08-18T00:39:32.283Z,26.94
2018-08-18T00:40:13.134Z,26.91
2018-08-18T00:40:53.989Z,26.99
2018-08-18T00:41:34.732Z,26.94
2018-08-18T00:42:15.533Z,26.91
2018-08-18T00:42:56.370Z,26.97
2018-08-18T00:43:37.093Z,26.94
2018-08-18T00:44:17.844Z,26.97
2018-08-18T00:44:58.614Z,26.95
2018-08-18T00:45:39.394Z,26.87
2018-08-18T00:46:20.193Z,26.89
2018-08-18T00:47:00.971Z,26.88
2018-08-18T00:47:41.708Z,26.87
2018-08-18T00:48:22.536Z,26.89
2018-08-18T00:49:03.334Z,26.87
2018-08-18T00:49:44.138Z,26.89
2018-08-18T00:50:24.881Z,26.91
2018-08-18T00:51:05.664Z,26.88
2018-08-18T00:51:46.393Z,26.94
2018-08-18T00:52:27.243Z,26.87
2018-08-18T00:53:08.068Z,26.95
2018-08-18T00:53:48.879Z,26.91
2018-08-18T00:54:29.679Z,26.91
2018-08-18T00:55:10.495Z,26.87
2018-08-18T00:55:51.292Z,26.91
2018-08-18T00:56:32.156Z,27.02
2018-08-18T00:57:12.930Z,26.99
2018-08-18T00:57:53.725Z,27
2018-08-18T00:58:34.552Z,26.95
2018-08-18T00:59:15.384Z,26.99
2018-08-18T00:59:56.222Z,26.92
2018-08-18T01:00:36.965Z,26.91
2018-08-18T01:01:17.686Z,26.95
2018-08-18T01:01:58.416Z,26.91
2018-08-18T01:02:39.165Z,26.94
2018-08-18T01:03:20.000Z,26.99
2018-08-18T01:04:00.785Z,26.92
2018-08-18T01:04:41.549Z,26.91
2018-08-18T01:05:22.383Z,26.94
2018-08-18T01:06:03.186Z,26.89
2018-08-18T01:06:44.019Z,26.92
2018-08-18T01:07:24.803Z,26.95
2018-08-18T01:08:05.537Z,26.99
2018-08-18T01:08:46.317Z,26.92
2018-08-18T01:09:27.023Z,26.99
2018-08-18T01:10:07.887Z,27.04
2018-08-18T01:10:48.716Z,26.94
2018-08-18T01:11:29.543Z,26.88
2018-08-18T01:12:10.320Z,26.91
2018-08-18T01:12:51.130Z,26.89
2018-08-18T01:13:31.870Z,26.89
2018-08-18T01:14:12.673Z,26.92
2018-08-18T01:14:53.498Z,26.92
2018-08-18T01:15:34.205Z,26.88
2018-08-18T01:16:14.949Z,26.92
2018-08-18T01:16:55.726Z,26.91
2018-08-18T01:17:36.451Z,26.92
2018-08-18T01:18:17.210Z,26.89
2018-08-18T01:18:58.054Z,26.91
2018-08-18T01:19:38.861Z,26.87
2018-08-18T01:20:19.641Z,26.91
2018-08-18T01:21:00.380Z,26.94
2018-08-18T01:21:41.236Z,26.87
2018-08-18T01:22:22.041Z,26.88
2018-08-18T01:23:02.794Z,26.84
2018-08-18T01:23:43.529Z,26.85
2018-08-18T01:24:24.248Z,26.76
2018-08-18T01:25:05.080Z,26.85
2018-08-18T01:25:45.851Z,26.77
2018-08-18T01:26:26.717Z,26.85
2018-08-18T01:27:07.603Z,26.75
2018-08-18T01:27:48.247Z,26.81
2018-08-18T01:28:29.036Z,26.7
2018-08-18T01:29:09.794Z,26.73
2018-08-18T01:29:50.597Z,26.85
2018-08-18T01:30:31.346Z,26.81
2018-08-18T01:31:12.088Z,26.77
2018-08-18T01:31:52.923Z,26.75
2018-08-18T01:32:33.827Z,26.82
2018-08-18T01:33:14.562Z,26.67
2018-08-18T01:33:55.302Z,26.81
2018-08-18T01:34:36.113Z,26.76
2018-08-18T01:35:16.969Z,26.82
2018-08-18T01:35:57.705Z,26.82
2018-08-18T01:36:38.421Z,26.84
2018-08-18T01:37:19.161Z,26.75
2018-08-18T01:37:59.935Z,26.75
2018-08-18T01:38:40.795Z,26.7
2018-08-18T01:39:21.564Z,26.67
2018-08-18T01:40:02.329Z,26.69
2018-08-18T01:40:43.183Z,26.65
2018-08-18T01:41:24.011Z,26.72
2018-08-18T01:42:04.840Z,26.69
2018-08-18T01:42:45.532Z,26.65
2018-08-18T01:43:26.256Z,26.65
2018-08-18T01:44:06.968Z,26.6
2018-08-18T01:44:47.789Z,26.66
2018-08-18T01:45:28.589Z,26.67
2018-08-18T01:46:09.474Z,26.67
2018-08-18T01:46:50.204Z,26.72
2018-08-18T01:47:30.918Z,26.58
2018-08-18T01:48:11.715Z,26.63
2018-08-18T01:48:52.507Z,26.67
2018-08-18T01:49:33.211Z,26.63
2018-08-18T01:50:13.921Z,26.62
2018-08-18T01:50:54.662Z,26.65
2018-08-18T01:51:35.491Z,26.58
2018-08-18T01:52:16.212Z,26.63
2018-08-18T01:52:56.914Z,26.52
2018-08-18T01:53:37.753Z,26.63
2018-08-18T01:54:18.578Z,26.6
2018-08-18T01:54:59.443Z,26.58
2018-08-18T01:55:40.185Z,26.58
2018-08-18T01:56:20.973Z,26.63
2018-08-18T01:57:01.816Z,26.57
2018-08-18T01:57:42.584Z,26.62
2018-08-18T01:58:23.356Z,26.63
2018-08-18T01:59:04.220Z,26.6
2018-08-18T01:59:45.000Z,26.62
2018-08-18T02:00:25.860Z,26.63
2018-08-18T02:01:06.680Z,26.57
2018-08-18T02:01:47.443Z,26.57
2018-08-18T02:02:28.290Z,26.58
2018-08-18T02:03:09.136Z,26.58
2018-08-18T02:03:49.976Z,26.63
2018-08-18T02:04:30.849Z,26.6
2018-08-18T02:05:11.817Z,26.55
2018-08-18T02:05:52.612Z,26.6
2018-08-18T02:06:33.414Z,26.63
2018-08-18T02:07:14.237Z,26.52
2018-08-18T02:07:55.046Z,26.58
2018-08-18T02:08:35.897Z,26.52
2018-08-18T02:09:16.757Z,26.62
2018-08-18T02:09:57.617Z,26.62
2018-08-18T02:10:38.466Z,26.51
2018-08-18T02:11:19.317Z,26.67
2018-08-18T02:12:00.115Z,26.54
2018-08-18T02:12:40.998Z,26.54
2018-08-18T02:13:21.820Z,26.52
2018-08-18T02:14:02.695Z,26.48
2018-08-18T02:14:43.516Z,26.47
2018-08-18T02:15:24.343Z,26.39
2018-08-18T02:16:05.172Z,26.47
2018-08-18T02:16:46.038Z,26.4
2018-08-18T02:17:26.873Z,26.45
2018-08-18T02:18:07.705Z,26.4
2018-08-18T02:18:48.498Z,26.44
2018-08-18T02:19:29.292Z,26.5
2018-08-18T02:20:10.129Z,26.51
2018-08-18T02:20:50.917Z,26.48
2018-08-18T02:21:31.731Z,26.47
2018-08-18T02:22:12.573Z,26.48
2018-08-18T02:22:53.357Z,26.48
2018-08-18T02:23:34.171Z,26.43
2018-08-18T02:24:14.945Z,26.52
2018-08-18T02:24:55.760Z,26.5
2018-08-18T02:25:36.578Z,26.48
2018-08-18T02:26:17.355Z,26.51
2018-08-18T02:26:58.178Z,26.4
2018-08-18T02:27:39.010Z,26.47
2018-08-18T02:28:19.824Z,26.48
2018-08-18T02:29:00.648Z,26.44
2018-08-18T02:29:41.469Z,26.44
2018-08-18T02:30:22.303Z,26.39
2018-08-18T02:31:03.102Z,26.39
2018-08-18T02:31:43.930Z,26.45
2018-08-18T02:32:24.752Z,26.33
2018-08-18T02:33:05.663Z,26.39
2018-08-18T02:33:46.467Z,26.39
2018-08-18T02:34:27.302Z,26.32
2018-08-18T02:35:08.136Z,26.37
2018-08-18T02:35:48.971Z,26.39
2018-08-18T02:36:29.820Z,26.43
2018-08-18T02:37:10.625Z,26.39
2018-08-18T02:37:51.406Z,26.36
2018-08-18T02:38:32.268Z,26.45
2018-08-18T02:39:13.111Z,26.36
2018-08-18T02:39:53.971Z,26.45
2018-08-18T02:40:34.802Z,26.36
2018-08-18T02:41:15.586Z,26.37
2018-08-18T02:41:56.349Z,26.36
2018-08-18T02:42:37.106Z,26.33
2018-08-18T02:43:17.883Z,26.33
2018-08-18T02:43:58.755Z,26.35
2018-08-18T02:44:39.556Z,26.48
2018-08-18T02:45:20.410Z,26.43
2018-08-18T02:46:01.145Z,26.35
2018-08-18T02:46:41.905Z,26.45
2018-08-18T02:47:22.633Z,26.45
2018-08-18T02:48:03.473Z,26.47
2018-08-18T02:48:44.231Z,26.39
2018-08-18T02:49:24.957Z,26.51
2018-08-18T02:50:05.736Z,26.4
2018-08-18T02:50:46.565Z,26.47
2018-08-18T02:51:27.389Z,26.37
2018-08-18T02:52:08.133Z,26.44
2018-08-18T02:52:48.929Z,26.5
2018-08-18T02:53:29.665Z,26.48
2018-08-18T02:54:10.422Z,26.5
2018-08-18T02:54:51.272Z,26.37
2018-08-18T02:55:32.081Z,26.47
2018-08-18T02:56:12.914Z,26.54
2018-08-18T02:56:53.614Z,26.45
2018-08-18T02:57:34.412Z,26.48
2018-08-18T02:58:15.213Z,26.48
2018-08-18T02:58:55.952Z,26.35
2018-08-18T02:59:36.676Z,26.45
2018-08-18T03:00:17.440Z,26.43
2018-08-18T03:00:58.213Z,26.43
2018-08-18T03:01:39.007Z,26.43
2018-08-18T03:02:19.732Z,26.37
2018-08-18T03:03:00.516Z,26.39
2018-08-18T03:03:41.437Z,26.37
2018-08-18T03:04:22.304Z,26.44
2018-08-18T03:05:03.104Z,26.4
2018-08-18T03:05:43.845Z,26.33
2018-08-18T03:06:24.661Z,26.35
2018-08-18T03:07:05.491Z,26.35
2018-08-18T03:07:46.257Z,26.37
2018-08-18T03:08:26.955Z,26.39
2018-08-18T03:09:07.663Z,26.4
2018-08-18T03:09:48.533Z,26.36
2018-08-18T03:10:29.296Z,26.32
2018-08-18T03:11:10.169Z,26.37
2018-08-18T03:11:50.945Z,26.37
2018-08-18T03:12:31.688Z,26.35
2018-08-18T03:13:12.409Z,26.35
2018-08-18T03:13:53.157Z,26.43
2018-08-18T03:14:34.002Z,26.33
2018-08-18T03:15:14.742Z,26.35
2018-08-18T03:15:55.521Z,26.44
2018-08-18T03:16:36.381Z,26.44
2018-08-18T03:17:17.226Z,26.48
2018-08-18T03:17:58.072Z,26.36
2018-08-18T03:18:38.837Z,26.35
2018-08-18T03:19:19.556Z,26.44
2018-08-18T03:20:00.349Z,26.52
2018-08-18T03:20:41.220Z,26.37
2018-08-18T03:21:22.032Z,26.5
2018-08-18T03:22:02.883Z,26.45
2018-08-18T03:22:43.642Z,26.52
2018-08-18T03:23:24.420Z,26.51
2018-08-18T03:24:05.256Z,26.52
2018-08-18T03:24:45.985Z,26.47
2018-08-18T03:25:26.711Z,26.54
2018-08-18T03:26:07.421Z,26.57
2018-08-18T03:26:48.200Z,26.5
2018-08-18T03:27:29.013Z,26.54
2018-08-18T03:28:09.829Z,26.57
2018-08-18T03:28:50.760Z,26.55
2018-08-18T03:29:31.502Z,26.57
2018-08-18T03:30:12.258Z,26.54
2018-08-18T03:30:52.990Z,26.52
2018-08-18T03:31:33.835Z,26.5
2018-08-18T03:32:14.613Z,26.5
2018-08-18T03:32:55.388Z,26.52
2018-08-18T03:33:36.195Z,26.57
2018-08-18T03:34:17.077Z,26.54
2018-08-18T03:34:57.928Z,26.5
2018-08-18T03:35:38.719Z,26.6
2018-08-18T03:36:19.449Z,26.62
2018-08-18T03:37:00.255Z,26.54
2018-08-18T03:37:41.029Z,26.51
2018-08-18T03:38:21.842Z,26.6
2018-08-18T03:39:02.589Z,26.54
2018-08-18T03:39:43.318Z,26.62
2018-08-18T03:40:24.186Z,26.52
2018-08-18T03:41:04.917Z,26.55
2018-08-18T03:41:45.629Z,26.52
2018-08-18T03:42:26.481Z,26.48
2018-08-18T03:43:07.285Z,26.5
2018-08-18T03:43:48.099Z,26.4
2018-08-18T03:44:28.845Z,26.39
2018-08-18T03:45:09.571Z,26.47
2018-08-18T03:45:50.321Z,26.4
2018-08-18T03:46:31.124Z,26.51
2018-08-18T03:47:11.962Z,26.47
2018-08-18T03:47:52.799Z,26.47
2018-08-18T03:48:33.599Z,26.36
2018-08-18T03:49:14.344Z,26.44
2018-08-18T03:49:55.150Z,26.4
2018-08-18T03:50:35.971Z,26.35
2018-08-18T03:51:16.695Z,26.26
2018-08-18T03:51:57.461Z,26.28
2018-08-18T03:52:38.232Z,26.26
2018-08-18T03:53:19.075Z,26.26
2018-08-18T03:53:59.810Z,26.3
2018-08-18T03:54:40.586Z,26.25
2018-08-18T03:55:21.394Z,26.28
2018-08-18T03:56:02.211Z,26.25
2018-08-18T03:56:43.037Z,26.28
2018-08-18T03:57:23.825Z,26.28
2018-08-18T03:58:04.581Z,26.29
2018-08-18T03:58:45.398Z,26.23
2018-08-18T03:59:26.174Z,26.3
2018-08-18T04:00:06.919Z,26.29
2018-08-18T04:00:47.646Z,26.28
2018-08-18T04:01:28.477Z,26.29
2018-08-18T04:02:09.311Z,26.28
2018-08-18T04:02:50.101Z,26.25
2018-08-18T04:03:30.966Z,26.2
2018-08-18T04:04:11.689Z,26.23
2018-08-18T04:04:52.417Z,26.25
2018-08-18T04:05:33.218Z,26.15
2018-08-18T04:06:13.973Z,26.18
2018-08-18T04:06:54.829Z,26.17
2018-08-18T04:07:35.559Z,26.2
2018-08-18T04:08:16.313Z,26.13
2018-08-18T04:08:58.965Z,26.07
2018-08-18T04:09:37.970Z,26.09
2018-08-18T04:10:18.811Z,26.06
2018-08-18T04:10:59.528Z,26.06
2018-08-18T04:11:40.316Z,26.1
2018-08-18T04:12:21.135Z,26.09
2018-08-18T04:13:01.906Z,26.06
2018-08-18T04:13:42.658Z,26.13
2018-08-18T04:14:23.443Z,26.17
2018-08-18T04:15:04.225Z,26.15
2018-08-18T04:15:44.997Z,26.25
2018-08-18T04:16:25.797Z,26.21
2018-08-18T04:17:06.620Z,26.29
2018-08-18T04:17:47.477Z,26.18
2018-08-18T04:18:28.283Z,26.26
2018-08-18T04:19:09.058Z,26.32
2018-08-18T04:19:49.808Z,26.26
2018-08-18T04:20:30.528Z,26.33
2018-08-18T04:21:11.318Z,26.29
2018-08-18T04:21:52.164Z,26.29
2018-08-18T04:22:32.947Z,26.25
2018-08-18T04:23:13.763Z,26.29
2018-08-18T04:23:54.494Z,26.32
2018-08-18T04:24:35.262Z,26.35
2018-08-18T04:25:16.174Z,26.39
2018-08-18T04:25:56.854Z,26.3
2018-08-18T04:26:37.565Z,26.35
2018-08-18T04:27:18.312Z,26.39
2018-08-18T04:27:59.092Z,26.29
2018-08-18T04:28:39.940Z,26.37
2018-08-18T04:29:20.764Z,26.37
2018-08-18T04:30:01.592Z,26.4
2018-08-18T04:30:42.344Z,26.37
2018-08-18T04:31:23.032Z,26.43
2018-08-18T04:32:03.803Z,26.37
2018-08-18T04:32:44.669Z,26.37
2018-08-18T04:33:25.461Z,26.48
2018-08-18T04:34:06.237Z,26.36
2018-08-18T04:34:47.134Z,26.39
2018-08-18T04:35:28.015Z,26.44
2018-08-18T04:36:08.821Z,26.29
2018-08-18T04:36:49.542Z,26.47
2018-08-18T04:37:30.328Z,26.36
2018-08-18T04:38:11.092Z,26.36
2018-08-18T04:38:51.866Z,26.44
2018-08-18T04:39:32.702Z,26.35
2018-08-18T04:40:13.508Z,26.37
2018-08-18T04:40:54.321Z,26.37
2018-08-18T04:41:35.035Z,26.36
2018-08-18T04:42:15.838Z,26.45
2018-08-18T04:42:56.649Z,26.4
2018-08-18T04:43:37.407Z,26.48
2018-08-18T04:44:18.140Z,26.5
2018-08-18T04:44:58.884Z,26.47
2018-08-18T04:45:39.689Z,26.48
2018-08-18T04:46:20.465Z,26.43
2018-08-18T04:47:01.254Z,26.48
2018-08-18T04:47:42.073Z,26.44
2018-08-18T04:48:22.945Z,26.48
2018-08-18T04:49:03.771Z,26.48
2018-08-18T04:49:44.573Z,26.48
2018-08-18T04:50:25.392Z,26.39
2018-08-18T04:51:06.217Z,26.39
2018-08-18T04:51:46.956Z,26.44
2018-08-18T04:52:27.761Z,26.36
2018-08-18T04:53:08.473Z,26.36
2018-08-18T04:53:49.245Z,26.37
2018-08-18T04:54:30.138Z,26.36
2018-08-18T04:55:10.955Z,26.36
2018-08-18T04:55:51.800Z,26.37
2018-08-18T04:56:32.553Z,26.43
2018-08-18T04:57:13.310Z,26.39
2018-08-18T04:57:54.061Z,26.47
2018-08-18T04:58:34.836Z,26.43
2018-08-18T04:59:15.698Z,26.43
2018-08-18T04:59:56.386Z,26.33
2018-08-18T05:00:37.263Z,26.35
2018-08-18T05:01:18.118Z,26.44
2018-08-18T05:01:58.935Z,26.33
2018-08-18T05:02:39.722Z,26.33
2018-08-18T05:03:20.558Z,26.36
2018-08-18T05:04:01.243Z,26.39
2018-08-18T05:04:41.976Z,26.36
2018-08-18T05:05:22.798Z,26.39
2018-08-18T05:06:03.614Z,26.37
2018-08-18T05:06:44.397Z,26.4
2018-08-18T05:07:25.126Z,26.32
2018-08-18T05:08:05.903Z,26.36
2018-08-18T05:08:46.760Z,26.35
2018-08-18T05:09:27.438Z,26.37
2018-08-18T05:10:08.212Z,26.37
2018-08-18T05:10:49.023Z,26.37
2018-08-18T05:11:29.883Z,26.36
2018-08-18T05:12:10.649Z,26.33
2018-08-18T05:12:51.489Z,26.35
2018-08-18T05:13:32.282Z,26.35
2018-08-18T05:14:13.019Z,26.4
2018-08-18T05:14:53.777Z,26.35
2018-08-18T05:15:34.563Z,26.4
2018-08-18T05:16:15.388Z,26.39
2018-08-18T05:16:56.139Z,26.4
2018-08-18T05:17:36.881Z,26.33
2018-08-18T05:18:17.715Z,26.4
2018-08-18T05:18:58.604Z,26.35
2018-08-18T05:19:39.356Z,26.4
2018-08-18T05:20:20.075Z,26.39
2018-08-18T05:21:00.871Z,26.36
2018-08-18T05:21:41.740Z,26.29
2018-08-18T05:22:22.506Z,26.35
2018-08-18T05:23:03.222Z,26.39
2018-08-18T05:23:43.981Z,26.4
2018-08-18T05:24:24.790Z,26.39
2018-08-18T05:25:05.631Z,26.39
2018-08-18T05:25:46.373Z,26.39
2018-08-18T05:26:27.152Z,26.37
2018-08-18T05:27:08.053Z,26.32
2018-08-18T05:27:48.888Z,26.37
2018-08-18T05:28:29.626Z,26.44
2018-08-18T05:29:10.390Z,26.47
2018-08-18T05:29:51.207Z,26.44
2018-08-18T05:30:31.939Z,26.3
2018-08-18T05:31:12.794Z,26.36
2018-08-18T05:31:53.638Z,26.48
2018-08-18T05:32:34.478Z,26.47
2018-08-18T05:33:15.232Z,26.47
2018-08-18T05:33:55.988Z,26.43
2018-08-18T05:34:36.835Z,26.4
2018-08-18T05:35:17.616Z,26.32
2018-08-18T05:35:58.385Z,26.43
2018-08-18T05:36:39.197Z,26.43
2018-08-18T05:37:19.931Z,26.4
2018-08-18T05:38:00.806Z,26.39
2018-08-18T05:38:41.652Z,26.39
2018-08-18T05:40:43.018Z,26.37
2018-08-18T05:41:23.737Z,26.39
2018-08-18T05:42:04.580Z,26.37
2018-08-18T05:42:45.396Z,26.37
2018-08-18T05:43:26.186Z,26.35
2018-08-18T05:44:07.068Z,26.37
2018-08-18T05:44:47.829Z,26.36
2018-08-18T05:45:28.616Z,26.33
2018-08-18T05:46:09.395Z,26.39
2018-08-18T05:46:50.190Z,26.36
2018-08-18T05:47:30.925Z,26.37
2018-08-18T05:48:11.694Z,26.32
2018-08-18T05:48:52.536Z,26.33
2018-08-18T05:49:33.333Z,26.5
2018-08-18T05:50:14.032Z,26.44
2018-08-18T05:50:54.821Z,26.51
2018-08-18T05:51:35.675Z,26.45
2018-08-18T05:52:16.564Z,26.51
2018-08-18T05:52:58.031Z,26.62
2018-08-18T05:53:38.766Z,26.52
2018-08-18T05:54:19.511Z,26.54
2018-08-18T05:55:00.354Z,26.48
2018-08-18T05:55:41.179Z,26.52
2018-08-18T05:56:21.954Z,26.58
2018-08-18T05:57:02.740Z,26.62
2018-08-18T05:57:43.497Z,26.6
2018-08-18T05:58:24.309Z,26.58
2018-08-18T05:59:05.133Z,26.6
2018-08-18T05:59:45.959Z,26.62
2018-08-18T06:00:26.544Z,26.58
2018-08-18T06:01:07.280Z,26.6
2018-08-18T06:01:48.157Z,26.62
2018-08-18T06:02:29.029Z,26.66
2018-08-18T06:03:09.897Z,26.72
2018-08-18T06:03:50.631Z,26.69
2018-08-18T06:04:31.442Z,26.73
2018-08-18T06:05:12.247Z,26.69
2018-08-18T06:05:52.971Z,26.69
2018-08-18T06:06:33.928Z,26.69
2018-08-18T06:07:14.633Z,26.66
2018-08-18T06:07:55.451Z,26.7
2018-08-18T06:08:36.428Z,26.65
2018-08-18T06:09:17.185Z,26.7
2018-08-18T06:09:58.032Z,26.81
2018-08-18T06:10:38.835Z,26.75
2018-08-18T06:11:19.649Z,26.81
2018-08-18T06:12:00.429Z,26.77
2018-08-18T06:12:41.182Z,26.8
2018-08-18T06:13:22.083Z,26.81
2018-08-18T06:14:02.922Z,26.84
2018-08-18T06:14:43.694Z,26.84
2018-08-18T06:15:24.430Z,26.87
2018-08-18T06:16:05.226Z,26.76
2018-08-18T06:16:46.020Z,26.77
2018-08-18T06:17:26.765Z,26.87
2018-08-18T06:18:07.522Z,26.82
2018-08-18T06:18:48.307Z,26.82
2018-08-18T06:19:29.223Z,26.89
2018-08-18T06:20:09.970Z,26.89
2018-08-18T06:20:50.723Z,26.8
2018-08-18T06:21:31.502Z,26.92
2018-08-18T06:22:12.324Z,26.94
2018-08-18T06:22:53.163Z,26.91
2018-08-18T06:23:33.871Z,27.03
2018-08-18T06:24:14.707Z,27.1
2018-08-18T06:24:55.567Z,27.22
2018-08-18T06:25:36.347Z,27.37
2018-08-18T06:26:17.082Z,27.82
2018-08-18T06:26:57.831Z,28.15
2018-08-18T06:27:38.621Z,28.48
2018-08-18T06:28:19.464Z,28.81
2018-08-18T06:29:00.326Z,29.12
2018-08-18T06:29:41.134Z,29.39
2018-08-18T06:30:21.936Z,29.68
2018-08-18T06:31:02.706Z,29.94
2018-08-18T06:31:43.435Z,30.22
2018-08-18T06:32:24.244Z,30.54
2018-08-18T06:33:05.026Z,30.75
2018-08-18T06:33:45.748Z,30.97
2018-08-18T06:34:26.634Z,31.17
2018-08-18T06:35:07.452Z,31.31
2018-08-18T06:35:48.257Z,31.57
2018-08-18T06:36:29.008Z,31.73
2018-08-18T06:37:09.736Z,31.99
2018-08-18T06:37:50.480Z,32.08
2018-08-18T06:38:31.346Z,32.3
2018-08-18T06:39:12.129Z,32.41
2018-08-18T06:39:52.982Z,32.55
2018-08-18T06:40:33.768Z,32.77
2018-08-18T06:41:14.624Z,32.75
2018-08-18T06:41:55.368Z,33.07
2018-08-18T06:42:36.109Z,33.12
2018-08-18T06:43:16.814Z,33.29
2018-08-18T06:43:57.578Z,33.37
2018-08-18T06:44:38.339Z,33.47
2018-08-18T06:45:19.148Z,33.59
2018-08-18T06:45:59.998Z,33.73
2018-08-18T06:46:40.789Z,33.66
2018-08-18T06:47:21.511Z,33.81
2018-08-18T06:48:02.238Z,33.81
2018-08-18T06:48:42.948Z,33.93
2018-08-18T06:49:23.747Z,34
2018-08-18T06:50:04.515Z,34.13
2018-08-18T06:50:45.256Z,34.27
2018-08-18T06:51:26.060Z,34.44
2018-08-18T06:52:06.879Z,34.44
2018-08-18T06:52:47.738Z,34.7
2018-08-18T06:53:28.506Z,34.73
2018-08-18T06:54:09.248Z,34.92
2018-08-18T06:54:50.176Z,34.92
2018-08-18T06:55:30.839Z,35.09
2018-08-18T06:56:11.582Z,35.14
2018-08-18T06:56:52.361Z,35.14
2018-08-18T06:57:33.011Z,35.16
2018-08-18T06:58:13.832Z,35.25
2018-08-18T06:58:54.602Z,35.22
2018-08-18T06:59:35.320Z,35.19
2018-08-18T07:00:16.161Z,35.37
2018-08-18T07:00:56.984Z,35.37
2018-08-18T07:01:38.590Z,35.43
2018-08-18T07:02:19.369Z,35.34
2018-08-18T07:03:00.097Z,35.43
2018-08-18T07:03:40.851Z,35.47
2018-08-18T07:04:21.706Z,35.56
2018-08-18T07:05:02.769Z,35.53
2018-08-18T07:05:43.707Z,35.66
2018-08-18T07:06:24.505Z,35.53
2018-08-18T07:07:05.259Z,35.52
2018-08-18T07:07:46.084Z,35.47
2018-08-18T07:08:26.886Z,35.58
2018-08-18T07:09:07.696Z,35.62
2018-08-18T07:09:48.434Z,35.77
2018-08-18T07:10:29.244Z,35.75
2018-08-18T07:11:10.100Z,35.43
2018-08-18T07:11:50.864Z,35.63
2018-08-18T07:12:31.647Z,35.8
2018-08-18T07:13:12.492Z,35.81
2018-08-18T07:13:53.257Z,35.74
2018-08-18T07:14:33.985Z,35.81
2018-08-18T07:15:14.771Z,35.7
2018-08-18T07:16:02.257Z,35.47
2018-08-18T07:16:43.312Z,34.84
2018-08-18T07:17:24.141Z,34.58
2018-08-18T07:18:05.068Z,34.46
2018-08-18T07:18:45.951Z,34.56
2018-08-18T07:19:26.837Z,34.62
2018-08-18T07:20:07.529Z,34.65
2018-08-18T07:20:48.605Z,34.32
2018-08-18T07:21:29.326Z,33.97
2018-08-18T07:22:10.172Z,33.57
2018-08-18T07:22:51.010Z,33.15
2018-08-18T07:23:38.808Z,32.94
2018-08-18T07:24:20.268Z,32.65
2018-08-18T07:25:00.801Z,32.48
2018-08-18T07:25:41.681Z,32.55
2018-08-18T07:26:22.435Z,32.19
2018-08-18T07:27:03.253Z,32.11
2018-08-18T07:27:44.697Z,31.91
2018-08-18T07:28:25.698Z,31.76
2018-08-18T07:29:06.762Z,31.58
2018-08-18T07:29:47.279Z,31.53
2018-08-18T07:30:28.042Z,31.46
2018-08-18T07:31:08.822Z,31.31
2018-08-18T07:31:49.674Z,31.19
2018-08-18T07:32:31.088Z,30.95
2018-08-18T07:33:11.835Z,30.8
2018-08-18T07:33:52.569Z,30.69
2018-08-18T07:34:33.446Z,30.73
2018-08-18T07:35:14.230Z,30.7
2018-08-18T07:35:54.993Z,30.58
2018-08-18T07:36:35.742Z,30.39
2018-08-18T07:37:16.578Z,30.38
2018-08-18T07:37:57.302Z,30.42
2018-08-18T07:38:38.239Z,30.35
2018-08-18T07:39:19.183Z,30.34
2018-08-18T07:39:59.909Z,30.27
2018-08-18T07:40:40.729Z,30.35
2018-08-18T07:41:21.495Z,30.34
2018-08-18T07:42:02.403Z,30.37
2018-08-18T07:42:43.153Z,30.43
2018-08-18T07:43:24.035Z,30.34
2018-08-18T07:44:04.943Z,30.22
2018-08-18T07:44:45.860Z,30.29
2018-08-18T07:45:26.748Z,30.24
2018-08-18T07:46:07.584Z,30.19
2018-08-18T07:46:48.349Z,30.05
2018-08-18T07:47:29.231Z,29.98
2018-08-18T07:48:10.035Z,30
2018-08-18T07:48:50.709Z,29.92
2018-08-18T07:49:31.496Z,29.83
2018-08-18T07:50:12.251Z,29.76
2018-08-18T07:50:53.150Z,29.71
2018-08-18T07:51:33.979Z,29.71
2018-08-18T07:52:14.729Z,29.65
2018-08-18T07:52:55.636Z,29.65
2018-08-18T07:53:36.573Z,29.64
2018-08-18T07:54:17.360Z,29.52
2018-08-18T07:54:58.144Z,29.43
2018-08-18T07:55:38.874Z,29.45
2018-08-18T07:56:19.656Z,29.51
2018-08-18T07:57:00.508Z,29.42
2018-08-18T07:57:41.334Z,29.41
2018-08-18T07:58:22.266Z,29.52
2018-08-18T07:59:03.105Z,29.45
2018-08-18T07:59:43.898Z,29.45
2018-08-18T08:00:24.640Z,29.41
2018-08-18T08:01:05.513Z,29.36
2018-08-18T08:01:46.342Z,29.27
2018-08-18T08:02:27.175Z,29.23
2018-08-18T08:03:07.911Z,29.26
2018-08-18T08:03:48.769Z,29.3
2018-08-18T08:04:29.496Z,29.23
2018-08-18T08:05:10.415Z,29.23
2018-08-18T08:05:51.580Z,29.27
2018-08-18T08:06:32.304Z,29.18
2018-08-18T08:07:13.748Z,29.21
2018-08-18T08:07:54.409Z,29.16
2018-08-18T08:08:35.155Z,29.19
2018-08-18T08:09:16.106Z,29.04
2018-08-18T08:09:56.885Z,29.08
2018-08-18T08:10:37.629Z,29
2018-08-18T08:11:18.380Z,28.96
2018-08-18T08:11:59.310Z,28.93
2018-08-18T08:12:40.204Z,29.05
2018-08-18T08:13:20.917Z,28.92
2018-08-18T08:14:01.774Z,28.9
2018-08-18T08:14:42.857Z,28.95
2018-08-18T08:15:23.590Z,28.9
2018-08-18T08:16:04.398Z,28.89
2018-08-18T08:16:45.175Z,28.81
2018-08-18T08:17:25.966Z,28.86
2018-08-18T08:18:06.736Z,28.85
2018-08-18T08:18:47.520Z,28.9
2018-08-18T08:19:28.425Z,28.81
2018-08-18T08:20:09.264Z,28.89
2018-08-18T08:20:50.123Z,28.93
2018-08-18T08:21:30.879Z,28.9
2018-08-18T08:22:11.612Z,28.89
2018-08-18T08:22:52.357Z,28.95
2018-08-18T08:23:33.195Z,28.92
2018-08-18T08:24:13.944Z,28.83
2018-08-18T08:24:54.860Z,28.96
2018-08-18T08:25:35.643Z,28.96
2018-08-18T08:26:16.427Z,28.93
2018-08-18T08:26:57.342Z,28.8
2018-08-18T08:27:38.179Z,28.86
2018-08-18T08:28:18.929Z,28.81
2018-08-18T08:28:59.639Z,28.74
2018-08-18T08:29:40.454Z,28.71
2018-08-18T08:30:21.232Z,28.73
2018-08-18T08:31:02.105Z,28.68
2018-08-18T08:31:42.871Z,28.71
2018-08-18T08:32:23.631Z,28.66
2018-08-18T08:33:04.424Z,28.67
2018-08-18T08:33:45.188Z,28.67
2018-08-18T08:34:26.041Z,28.61
2018-08-18T08:35:06.842Z,28.66
2018-08-18T08:35:47.590Z,28.64
2018-08-18T08:36:28.430Z,28.67
2018-08-18T08:37:09.224Z,28.62
2018-08-18T08:37:50.056Z,28.61
2018-08-18T08:38:30.800Z,28.62
2018-08-18T08:39:11.572Z,28.56
2018-08-18T08:39:52.718Z,28.59
2018-08-18T08:40:33.455Z,28.59
2018-08-18T08:41:14.179Z,28.66
2018-08-18T08:41:54.939Z,28.56
2018-08-18T08:42:35.668Z,28.66
2018-08-18T08:43:16.569Z,28.67
2018-08-18T08:43:57.341Z,28.59
2018-08-18T08:44:38.121Z,28.59
2018-08-18T08:45:18.972Z,28.67
2018-08-18T08:45:59.791Z,28.59
2018-08-18T08:46:40.646Z,28.62
2018-08-18T08:47:21.353Z,28.66
2018-08-18T08:48:02.107Z,28.68
2018-08-18T08:48:42.825Z,28.66